createdAt,value
2019-03-11T00:00:09.261Z,1001.49
2019-03-11T00:01:09.221Z,1001.52
2019-03-11T00:02:09.209Z,1001.53
2019-03-11T00:03:09.198Z,1001.49
2019-03-11T00:04:10.043Z,1001.60
2019-03-11T00:05:09.200Z,1001.66
2019-03-11T00:06:09.167Z,1001.55
2019-03-11T00:07:09.156Z,1001.62
2019-03-11T00:08:09.145Z,1001.55
2019-03-11T00:09:09.134Z,1001.58
2019-03-11T00:10:09.146Z,1001.56
2019-03-11T00:11:09.111Z,1001.59
2019-03-11T00:12:09.102Z,1001.61
2019-03-11T00:13:09.090Z,1001.58
2019-03-11T00:14:09.081Z,1001.64
2019-03-11T00:15:09.102Z,1001.64
2019-03-11T00:16:09.057Z,1001.70
2019-03-11T00:17:09.046Z,1001.67
2019-03-11T00:18:09.036Z,1001.75
2019-03-11T00:19:09.025Z,1001.68
2019-03-11T00:20:09.013Z,1001.73
2019-03-11T00:21:09.027Z,1001.80
2019-03-11T00:22:08.989Z,1001.74
2019-03-11T00:23:08.982Z,1001.75
2019-03-11T00:24:08.969Z,1001.78
2019-03-11T00:25:08.997Z,1001.81
2019-03-11T00:26:08.947Z,1001.81
2019-03-11T00:27:08.941Z,1001.81
2019-03-11T00:28:08.930Z,1001.84
2019-03-11T00:29:08.916Z,1001.89
2019-03-11T00:30:08.904Z,1001.96
2019-03-11T00:31:08.921Z,1001.93
2019-03-11T00:32:08.882Z,1001.88
2019-03-11T00:33:08.871Z,1001.85
2019-03-11T00:34:08.860Z,1001.86
2019-03-11T00:35:08.892Z,1001.85
2019-03-11T00:36:08.840Z,1001.94
2019-03-11T00:37:08.827Z,1001.88
2019-03-11T00:38:08.816Z,1001.97
2019-03-11T00:39:08.805Z,1001.88
2019-03-11T00:40:08.796Z,1001.95
2019-03-11T00:41:08.809Z,1001.94
2019-03-11T00:42:08.775Z,1002.01
2019-03-11T00:43:08.764Z,1002.03
2019-03-11T00:44:08.758Z,1002.00
2019-03-11T00:45:08.741Z,1002.09
2019-03-11T00:46:08.754Z,1002.09
2019-03-11T00:47:08.721Z,1002.09
2019-03-11T00:48:08.709Z,1002.15
2019-03-11T00:49:08.700Z,1002.19
2019-03-11T00:50:08.692Z,1002.20
2019-03-11T00:51:08.705Z,1002.15
2019-03-11T00:52:08.665Z,1002.21
2019-03-11T00:53:08.656Z,1002.17
2019-03-11T00:54:08.647Z,1002.11
2019-03-11T00:55:08.663Z,1002.26
2019-03-11T00:56:08.625Z,1002.26
2019-03-11T00:57:08.611Z,1002.25
2019-03-11T00:58:08.610Z,1002.25
2019-03-11T00:59:08.596Z,1002.23
2019-03-11T01:00:08.604Z,1002.28
2019-03-11T01:01:08.568Z,1002.32
2019-03-11T01:02:08.558Z,1002.32
2019-03-11T01:03:08.549Z,1002.31
2019-03-11T01:04:08.536Z,1002.28
2019-03-11T01:05:08.564Z,1002.34
2019-03-11T01:06:08.513Z,1002.32
2019-03-11T01:07:08.503Z,1002.37
2019-03-11T01:08:08.492Z,1002.30
2019-03-11T01:09:08.486Z,1002.31
2019-03-11T01:10:08.470Z,1002.34
2019-03-11T01:11:08.482Z,1002.31
2019-03-11T01:12:08.448Z,1002.30
2019-03-11T01:13:08.437Z,1002.36
2019-03-11T01:14:08.426Z,1002.36
2019-03-11T01:15:08.417Z,1002.38
2019-03-11T01:16:08.434Z,1002.40
2019-03-11T01:17:08.394Z,1002.35
2019-03-11T01:18:08.384Z,1002.32
2019-03-11T01:19:08.375Z,1002.36
2019-03-11T01:20:08.364Z,1002.40
2019-03-11T01:21:08.375Z,1002.39
2019-03-11T01:22:08.339Z,1002.37
2019-03-11T01:23:08.328Z,1002.51
2019-03-11T01:24:08.317Z,1002.44
2019-03-11T01:25:08.307Z,1002.51
2019-03-11T01:26:08.323Z,1002.48
2019-03-11T01:27:08.286Z,1002.48
2019-03-11T01:28:08.273Z,1002.45
2019-03-11T01:29:08.262Z,1002.36
2019-03-11T01:30:08.290Z,1002.54
2019-03-11T01:31:08.241Z,1002.46
2019-03-11T01:32:08.232Z,1002.43
2019-03-11T01:33:08.233Z,1002.53
2019-03-11T01:34:08.210Z,1002.50
2019-03-11T01:35:08.197Z,1002.55
2019-03-11T01:36:08.214Z,1002.41
2019-03-11T01:37:08.178Z,1002.56
2019-03-11T01:38:08.166Z,1002.49
2019-03-11T01:39:08.155Z,1002.45
2019-03-11T01:40:08.172Z,1002.47
2019-03-11T01:41:08.134Z,1002.32
2019-03-11T01:42:08.121Z,1002.43
2019-03-11T01:43:08.111Z,1002.48
2019-03-11T01:44:08.101Z,1002.58
2019-03-11T01:45:08.117Z,1002.46
2019-03-11T01:46:08.079Z,1002.45
2019-03-11T01:47:08.069Z,1002.44
2019-03-11T01:48:08.057Z,1002.45
2019-03-11T01:49:08.047Z,1002.42
2019-03-11T01:50:08.075Z,1002.46
2019-03-11T01:51:08.029Z,1002.53
2019-03-11T01:52:08.018Z,1002.44
2019-03-11T01:53:08.004Z,1002.47
2019-03-11T01:54:08.010Z,1002.39
2019-03-11T01:55:07.981Z,1002.43
2019-03-11T01:56:07.995Z,1002.46
2019-03-11T01:57:07.960Z,1002.46
2019-03-11T01:58:07.952Z,1002.40
2019-03-11T01:59:07.938Z,1002.42
2019-03-11T02:00:07.963Z,1002.34
2019-03-11T02:01:07.916Z,1002.35
2019-03-11T02:02:07.905Z,1002.42
2019-03-11T02:03:07.900Z,1002.37
2019-03-11T02:04:07.885Z,1002.38
2019-03-11T02:05:07.874Z,1002.33
2019-03-11T02:06:07.887Z,1002.38
2019-03-11T02:07:07.853Z,1002.36
2019-03-11T02:08:07.839Z,1002.39
2019-03-11T02:09:07.835Z,1002.38
2019-03-11T02:10:07.819Z,1002.39
2019-03-11T02:11:07.900Z,1002.42
2019-03-11T02:12:07.796Z,1002.38
2019-03-11T02:13:07.787Z,1002.39
2019-03-11T02:14:07.777Z,1002.44
2019-03-11T02:15:07.803Z,1002.42
2019-03-11T02:16:07.752Z,1002.44
2019-03-11T02:17:07.742Z,1002.35
2019-03-11T02:18:07.735Z,1002.38
2019-03-11T02:19:07.721Z,1002.36
2019-03-11T02:20:07.711Z,1002.41
2019-03-11T02:21:07.723Z,1002.37
2019-03-11T02:22:07.688Z,1002.41
2019-03-11T02:23:07.680Z,1002.38
2019-03-11T02:24:07.678Z,1002.36
2019-03-11T02:25:07.657Z,1002.38
2019-03-11T02:26:07.677Z,1002.42
2019-03-11T02:27:07.633Z,1002.40
2019-03-11T02:28:07.623Z,1002.26
2019-03-11T02:29:07.613Z,1002.44
2019-03-11T02:30:07.603Z,1002.43
2019-03-11T02:31:07.617Z,1002.41
2019-03-11T02:32:07.590Z,1002.37
2019-03-11T02:33:07.571Z,1002.39
2019-03-11T02:34:07.569Z,1002.40
2019-03-11T02:35:07.584Z,1002.47
2019-03-11T02:36:07.541Z,1002.43
2019-03-11T02:37:07.529Z,1002.39
2019-03-11T02:38:07.520Z,1002.44
2019-03-11T02:39:07.506Z,1002.43
2019-03-11T02:40:07.493Z,1002.38
2019-03-11T02:41:07.513Z,1002.44
2019-03-11T02:42:07.481Z,1002.45
2019-03-11T02:43:07.484Z,1002.42
2019-03-11T02:44:07.449Z,1002.41
2019-03-11T02:45:07.468Z,1002.47
2019-03-11T02:46:07.427Z,1002.50
2019-03-11T02:47:07.425Z,1002.44
2019-03-11T02:48:07.439Z,1002.45
2019-03-11T02:49:07.397Z,1002.48
2019-03-11T02:50:07.411Z,1002.49
2019-03-11T02:51:07.374Z,1002.43
2019-03-11T02:52:07.363Z,1002.48
2019-03-11T02:53:07.352Z,1002.49
2019-03-11T02:54:07.355Z,1002.48
2019-03-11T02:55:07.547Z,1002.47
2019-03-11T02:56:07.318Z,1002.51
2019-03-11T02:57:07.313Z,1002.48
2019-03-11T02:58:07.298Z,1002.46
2019-03-11T02:59:07.287Z,1002.44
2019-03-11T03:00:07.321Z,1002.54
2019-03-11T03:01:07.268Z,1002.40
2019-03-11T03:02:07.256Z,1002.40
2019-03-11T03:03:07.245Z,1002.34
2019-03-11T03:04:07.236Z,1002.36
2019-03-11T03:05:07.254Z,1002.33
2019-03-11T03:06:07.214Z,1002.36
2019-03-11T03:07:07.233Z,1002.32
2019-03-11T03:08:07.192Z,1002.34
2019-03-11T03:09:07.179Z,1002.34
2019-03-11T03:10:07.203Z,1002.35
2019-03-11T03:11:07.163Z,1002.33
2019-03-11T03:12:07.172Z,1002.32
2019-03-11T03:13:07.134Z,1002.33
2019-03-11T03:14:07.126Z,1002.33
2019-03-11T03:15:07.113Z,1002.32
2019-03-11T03:16:07.176Z,1002.22
2019-03-11T03:17:07.097Z,1002.30
2019-03-11T03:18:07.082Z,1002.29
2019-03-11T03:19:07.087Z,1002.28
2019-03-11T03:20:07.075Z,1002.24
2019-03-11T03:21:07.077Z,1002.33
2019-03-11T03:22:07.036Z,1002.24
2019-03-11T03:23:07.030Z,1002.31
2019-03-11T03:24:07.017Z,1002.28
2019-03-11T03:25:07.007Z,1002.30
2019-03-11T03:26:07.028Z,1002.32
2019-03-11T03:27:06.984Z,1002.32
2019-03-11T03:28:07.237Z,1002.25
2019-03-11T03:29:06.967Z,1002.23
2019-03-11T03:30:06.967Z,1002.29
2019-03-11T03:31:06.983Z,1002.23
2019-03-11T03:32:06.981Z,1002.31
2019-03-11T03:33:06.928Z,1002.26
2019-03-11T03:34:06.912Z,1002.27
2019-03-11T03:35:06.926Z,1002.18
2019-03-11T03:36:06.889Z,1002.17
2019-03-11T03:37:06.878Z,1002.22
2019-03-11T03:38:06.868Z,1002.22
2019-03-11T03:39:06.889Z,1002.18
2019-03-11T03:40:06.873Z,1002.22
2019-03-11T03:41:06.836Z,1002.16
2019-03-11T03:42:06.827Z,1002.18
2019-03-11T03:43:07.038Z,1002.19
2019-03-11T03:44:06.813Z,1002.16
2019-03-11T03:45:06.817Z,1002.12
2019-03-11T03:46:17.727Z,1002.20
2019-03-11T03:47:07.773Z,1002.12
2019-03-11T03:48:06.764Z,1002.19
2019-03-11T03:49:06.751Z,1002.12
2019-03-11T03:50:06.771Z,1002.18
2019-03-11T03:51:06.730Z,1002.14
2019-03-11T03:52:06.739Z,1002.15
2019-03-11T03:53:06.710Z,1002.16
2019-03-11T03:54:06.697Z,1002.10
2019-03-11T03:55:06.728Z,1002.07
2019-03-11T03:56:06.684Z,1002.17
2019-03-11T03:57:06.669Z,1001.99
2019-03-11T03:58:06.656Z,1002.03
2019-03-11T03:59:06.644Z,1002.06
2019-03-11T04:00:06.636Z,1002.07
2019-03-11T04:01:06.660Z,1002.06
2019-03-11T04:02:06.621Z,1002.10
2019-03-11T04:03:06.605Z,1002.04
2019-03-11T04:04:06.594Z,1002.08
2019-03-11T04:05:06.584Z,1002.09
2019-03-11T04:06:06.597Z,1002.06
2019-03-11T04:07:06.562Z,1002.03
2019-03-11T04:08:06.557Z,1002.07
2019-03-11T04:09:06.541Z,1002.07
2019-03-11T04:10:06.537Z,1001.97
2019-03-11T04:11:06.544Z,1002.04
2019-03-11T04:12:06.510Z,1002.04
2019-03-11T04:13:06.499Z,1002.00
2019-03-11T04:14:06.490Z,1002.02
2019-03-11T04:15:06.477Z,1002.02
2019-03-11T04:16:06.492Z,1001.94
2019-03-11T04:17:06.460Z,1002.03
2019-03-11T04:18:06.444Z,1001.94
2019-03-11T04:19:06.436Z,1001.99
2019-03-11T04:20:06.426Z,1002.02
2019-03-11T04:21:06.447Z,1002.01
2019-03-11T04:22:06.401Z,1001.96
2019-03-11T04:23:06.391Z,1001.97
2019-03-11T04:24:06.382Z,1002.01
2019-03-11T04:25:06.370Z,1001.95
2019-03-11T04:26:06.385Z,1001.97
2019-03-11T04:27:06.355Z,1001.99
2019-03-11T04:28:06.338Z,1001.96
2019-03-11T04:29:06.329Z,1001.91
2019-03-11T04:30:06.356Z,1001.92
2019-03-11T04:31:06.306Z,1001.99
2019-03-11T04:32:06.294Z,1001.94
2019-03-11T04:33:06.287Z,1001.91
2019-03-11T04:34:06.274Z,1001.98
2019-03-11T04:35:06.262Z,1001.99
2019-03-11T04:36:06.276Z,1001.92
2019-03-11T04:37:06.240Z,1001.96
2019-03-11T04:38:06.233Z,1001.90
2019-03-11T04:39:06.221Z,1001.96
2019-03-11T04:40:06.254Z,1001.89
2019-03-11T04:41:06.199Z,1001.97
2019-03-11T04:42:06.191Z,1001.98
2019-03-11T04:43:06.176Z,1001.97
2019-03-11T04:44:06.915Z,1001.90
2019-03-11T04:45:06.184Z,1002.02
2019-03-11T04:46:06.145Z,1002.01
2019-03-11T04:47:06.135Z,1002.01
2019-03-11T04:48:06.125Z,1002.07
2019-03-11T04:49:06.111Z,1002.05
2019-03-11T04:50:06.127Z,1002.05
2019-03-11T04:51:06.094Z,1002.02
2019-03-11T04:52:06.081Z,1002.02
2019-03-11T04:53:06.070Z,1002.09
2019-03-11T04:54:06.060Z,1002.12
2019-03-11T04:55:06.074Z,1002.06
2019-03-11T04:56:06.040Z,1002.07
2019-03-11T04:57:06.028Z,1002.04
2019-03-11T04:58:06.016Z,1002.07
2019-03-11T04:59:06.004Z,1002.09
2019-03-11T05:00:06.030Z,1002.13
2019-03-11T05:01:05.983Z,1002.09
2019-03-11T05:02:05.973Z,1002.06
2019-03-11T05:03:05.961Z,1002.09
2019-03-11T05:04:05.954Z,1002.09
2019-03-11T05:05:05.941Z,1002.06
2019-03-11T05:06:05.968Z,1002.11
2019-03-11T05:07:05.927Z,1002.08
2019-03-11T05:08:05.910Z,1002.11
2019-03-11T05:09:05.898Z,1002.08
2019-03-11T05:10:05.890Z,1002.09
2019-03-11T05:11:05.877Z,1002.06
2019-03-11T05:12:05.905Z,1002.09
2019-03-11T05:13:05.857Z,1002.05
2019-03-11T05:14:05.846Z,1002.13
2019-03-11T05:15:05.837Z,1002.14
2019-03-11T05:16:05.823Z,1002.15
2019-03-11T05:17:05.818Z,1002.15
2019-03-11T05:18:05.829Z,1002.15
2019-03-11T05:19:05.798Z,1002.14
2019-03-11T05:20:05.781Z,1002.13
2019-03-11T05:21:05.771Z,1002.11
2019-03-11T05:22:05.762Z,1002.12
2019-03-11T05:23:05.788Z,1002.13
2019-03-11T05:24:05.738Z,1002.09
2019-03-11T05:25:05.727Z,1002.05
2019-03-11T05:26:05.720Z,1002.15
2019-03-11T05:27:05.706Z,1002.12
2019-03-11T05:28:05.696Z,1002.11
2019-03-11T05:29:05.722Z,1002.09
2019-03-11T05:30:05.673Z,1002.09
2019-03-11T05:31:05.663Z,1002.08
2019-03-11T05:32:05.652Z,1002.06
2019-03-11T05:33:05.641Z,1002.02
2019-03-11T05:34:05.630Z,1002.07
2019-03-11T05:35:05.647Z,1002.02
2019-03-11T05:36:05.609Z,1001.97
2019-03-11T05:37:05.596Z,1002.02
2019-03-11T05:38:05.586Z,1001.94
2019-03-11T05:39:05.581Z,1001.99
2019-03-11T05:40:05.603Z,1001.99
2019-03-11T05:41:05.554Z,1001.91
2019-03-11T05:42:05.543Z,1002.03
2019-03-11T05:43:05.531Z,1002.00
2019-03-11T05:44:05.524Z,1001.97
2019-03-11T05:45:05.516Z,1002.03
2019-03-11T05:46:05.536Z,1002.00
2019-03-11T05:47:05.490Z,1002.05
2019-03-11T05:48:05.479Z,1002.05
2019-03-11T05:49:05.468Z,1002.00
2019-03-11T05:50:05.458Z,1002.04
2019-03-11T05:51:05.447Z,1002.03
2019-03-11T05:52:05.472Z,1002.03
2019-03-11T05:53:05.424Z,1002.02
2019-03-11T05:54:05.417Z,1002.00
2019-03-11T05:55:05.402Z,1002.03
2019-03-11T05:56:05.392Z,1001.99
2019-03-11T05:57:05.381Z,1002.03
2019-03-11T05:58:05.394Z,1002.04
2019-03-11T05:59:05.357Z,1002.07
2019-03-11T06:00:05.351Z,1002.07
2019-03-11T06:01:05.339Z,1002.08
2019-03-11T06:02:05.326Z,1002.06
2019-03-11T06:03:05.353Z,1002.12
2019-03-11T06:04:05.305Z,1002.06
2019-03-11T06:05:05.298Z,1002.10
2019-03-11T06:06:05.287Z,1002.08
2019-03-11T06:07:05.271Z,1002.09
2019-03-11T06:08:05.262Z,1002.11
2019-03-11T06:09:05.288Z,1002.14
2019-03-11T06:10:05.241Z,1002.11
2019-03-11T06:11:05.230Z,1002.09
2019-03-11T06:12:05.218Z,1002.10
2019-03-11T06:13:05.208Z,1002.13
2019-03-11T06:14:05.199Z,1002.12
2019-03-11T06:15:05.429Z,1002.10
2019-03-11T06:16:05.175Z,1002.13
2019-03-11T06:17:05.164Z,1002.07
2019-03-11T06:18:05.160Z,1002.11
2019-03-11T06:19:05.147Z,1002.10
2019-03-11T06:20:05.168Z,1002.11
2019-03-11T06:21:05.121Z,1002.12
2019-03-11T06:22:05.110Z,1002.14
2019-03-11T06:23:05.105Z,1002.21
2019-03-11T06:24:05.094Z,1002.21
2019-03-11T06:25:05.087Z,1002.18
2019-03-11T06:26:05.102Z,1002.27
2019-03-11T06:27:05.057Z,1002.21
2019-03-11T06:28:05.044Z,1002.17
2019-03-11T06:29:05.035Z,1002.24
2019-03-11T06:30:05.024Z,1002.15
2019-03-11T06:31:05.014Z,1002.19
2019-03-11T06:32:05.040Z,1002.17
2019-03-11T06:33:04.993Z,1002.21
2019-03-11T06:34:04.983Z,1002.21
2019-03-11T06:35:04.971Z,1002.16
2019-03-11T06:36:04.962Z,1002.18
2019-03-11T06:37:04.951Z,1002.14
2019-03-11T06:38:04.963Z,1002.13
2019-03-11T06:39:06.059Z,1002.16
2019-03-11T06:40:04.919Z,1002.22
2019-03-11T06:41:04.916Z,1002.17
2019-03-11T06:42:04.899Z,1002.14
2019-03-11T06:43:04.912Z,1002.16
2019-03-11T06:44:04.876Z,1002.13
2019-03-11T06:45:04.866Z,1002.22
2019-03-11T06:46:04.855Z,1002.19
2019-03-11T06:47:04.843Z,1002.20
2019-03-11T06:48:04.873Z,1002.21
2019-03-11T06:49:04.822Z,1002.19
2019-03-11T06:50:04.812Z,1002.19
2019-03-11T06:51:04.803Z,1002.17
2019-03-11T06:52:04.793Z,1002.19
2019-03-11T06:53:04.780Z,1002.17
2019-03-11T06:54:04.804Z,1002.17
2019-03-11T06:55:04.759Z,1002.11
2019-03-11T06:56:04.746Z,1002.17
2019-03-11T06:57:04.737Z,1002.17
2019-03-11T06:58:04.727Z,1002.20
2019-03-11T06:59:04.721Z,1002.15
2019-03-11T07:00:04.731Z,1002.18
2019-03-11T07:01:04.694Z,1002.12
2019-03-11T07:02:04.682Z,1002.14
2019-03-11T07:03:04.673Z,1002.17
2019-03-11T07:04:04.663Z,1002.14
2019-03-11T07:05:04.684Z,1002.15
2019-03-11T07:06:04.640Z,1002.14
2019-03-11T07:07:04.630Z,1002.16
2019-03-11T07:08:04.619Z,1002.21
2019-03-11T07:09:04.611Z,1002.10
2019-03-11T07:10:04.658Z,1002.17
2019-03-11T07:11:04.587Z,1002.23
2019-03-11T07:12:04.578Z,1002.12
2019-03-11T07:13:04.566Z,1002.14
2019-03-11T07:14:04.556Z,1002.25
2019-03-11T07:15:04.549Z,1002.18
2019-03-11T07:16:04.574Z,1002.12
2019-03-11T07:17:04.525Z,1002.20
2019-03-11T07:18:04.513Z,1002.18
2019-03-11T07:19:04.502Z,1002.24
2019-03-11T07:20:04.491Z,1002.22
2019-03-11T07:21:04.482Z,1002.18
2019-03-11T07:22:04.497Z,1002.15
2019-03-11T07:23:04.465Z,1002.22
2019-03-11T07:24:04.448Z,1002.16
2019-03-11T07:25:04.438Z,1002.24
2019-03-11T07:26:04.428Z,1002.31
2019-03-11T07:27:04.442Z,1002.27
2019-03-11T07:28:04.406Z,1002.32
2019-03-11T07:29:04.393Z,1002.37
2019-03-11T07:30:04.385Z,1002.28
2019-03-11T07:31:04.375Z,1002.30
2019-03-11T07:32:04.402Z,1002.35
2019-03-11T07:33:06.872Z,1002.31
2019-03-11T07:34:04.342Z,1002.34
2019-03-11T07:35:08.237Z,1002.38
2019-03-11T07:36:04.320Z,1002.35
2019-03-11T07:37:04.337Z,1002.45
2019-03-11T07:38:04.333Z,1002.40
2019-03-11T07:39:04.295Z,1002.38
2019-03-11T07:40:04.286Z,1002.39
2019-03-11T07:41:04.267Z,1002.42
2019-03-11T07:42:04.257Z,1002.45
2019-03-11T07:43:04.246Z,1002.46
2019-03-11T07:44:04.272Z,1002.38
2019-03-11T07:45:04.225Z,1002.42
2019-03-11T07:46:04.213Z,1002.43
2019-03-11T07:47:04.204Z,1002.43
2019-03-11T07:48:04.192Z,1002.44
2019-03-11T07:49:04.181Z,1002.41
2019-03-11T07:50:04.228Z,1002.46
2019-03-11T07:51:04.168Z,1002.46
2019-03-11T07:52:04.157Z,1002.49
2019-03-11T07:53:04.139Z,1002.54
2019-03-11T07:54:04.130Z,1002.35
2019-03-11T07:55:04.142Z,1002.36
2019-03-11T07:56:04.104Z,1002.37
2019-03-11T07:57:04.121Z,1002.32
2019-03-11T07:58:04.087Z,1002.40
2019-03-11T07:59:04.076Z,1002.40
2019-03-11T08:00:04.102Z,1002.41
2019-03-11T08:01:04.064Z,1002.46
2019-03-11T08:02:04.044Z,1002.45
2019-03-11T08:03:04.035Z,1002.52
2019-03-11T08:04:04.330Z,1002.39
2019-03-11T08:05:04.009Z,1002.39
2019-03-11T08:06:04.039Z,1002.45
2019-03-11T08:07:03.991Z,1002.40
2019-03-11T08:08:04.086Z,1002.45
2019-03-11T08:09:03.967Z,1002.51
2019-03-11T08:10:03.959Z,1002.41
2019-03-11T08:11:03.947Z,1002.47
2019-03-11T08:12:03.963Z,1002.45
2019-03-11T08:13:03.927Z,1002.50
2019-03-11T08:14:03.915Z,1002.51
2019-03-11T08:15:03.906Z,1002.53
2019-03-11T08:16:03.894Z,1002.53
2019-03-11T08:17:03.938Z,1002.49
2019-03-11T08:18:03.879Z,1002.50
2019-03-11T08:19:03.869Z,1002.53
2019-03-11T08:20:03.858Z,1002.45
2019-03-11T08:21:03.844Z,1002.44
2019-03-11T08:22:03.871Z,1002.54
2019-03-11T08:23:03.821Z,1002.52
2019-03-11T08:24:03.814Z,1002.58
2019-03-11T08:25:03.801Z,1002.54
2019-03-11T08:26:03.793Z,1002.64
2019-03-11T08:27:03.780Z,1002.64
2019-03-11T08:28:03.817Z,1002.61
2019-03-11T08:29:03.759Z,1002.56
2019-03-11T08:30:03.751Z,1002.59
2019-03-11T08:31:03.744Z,1002.71
2019-03-11T08:32:03.728Z,1002.69
2019-03-11T08:33:03.717Z,1002.60
2019-03-11T08:34:03.729Z,1002.62
2019-03-11T08:35:05.997Z,1002.69
2019-03-11T08:36:03.688Z,1002.70
2019-03-11T08:37:03.690Z,1002.70
2019-03-11T08:38:05.349Z,1002.65
2019-03-11T08:39:03.692Z,1002.66
2019-03-11T08:40:03.649Z,1002.67
2019-03-11T08:41:03.634Z,1002.65
2019-03-11T08:42:03.622Z,1002.67
2019-03-11T08:43:03.611Z,1002.66
2019-03-11T08:44:03.602Z,1002.70
2019-03-11T08:45:03.618Z,1002.69
2019-03-11T08:46:03.579Z,1002.76
2019-03-11T08:47:03.569Z,1002.69
2019-03-11T08:48:03.567Z,1002.76
2019-03-11T08:49:03.549Z,1002.76
2019-03-11T08:50:03.575Z,1002.74
2019-03-11T08:51:03.527Z,1002.75
2019-03-11T08:52:05.382Z,1002.77
2019-03-11T08:53:03.506Z,1002.76
2019-03-11T08:54:03.498Z,1002.79
2019-03-11T08:55:03.485Z,1002.82
2019-03-11T08:56:03.510Z,1002.76
2019-03-11T08:57:03.464Z,1002.79
2019-03-11T08:58:03.529Z,1002.75
2019-03-11T08:59:03.448Z,1002.79
2019-03-11T09:00:03.431Z,1002.75
2019-03-11T09:01:03.421Z,1002.80
2019-03-11T09:02:03.443Z,1002.74
2019-03-11T09:03:03.401Z,1002.74
2019-03-11T09:04:03.392Z,1002.74
2019-03-11T09:05:03.378Z,1002.80
2019-03-11T09:06:03.370Z,1002.72
2019-03-11T09:07:03.407Z,1002.76
2019-03-11T09:08:03.350Z,1002.84
2019-03-11T09:09:03.338Z,1002.78
2019-03-11T09:10:03.328Z,1002.82
2019-03-11T09:11:03.317Z,1002.84
2019-03-11T09:12:03.308Z,1002.85
2019-03-11T09:13:03.334Z,1002.82
2019-03-11T09:14:03.285Z,1002.85
2019-03-11T09:15:03.275Z,1002.89
2019-03-11T09:16:03.265Z,1002.84
2019-03-11T09:17:03.254Z,1002.88
2019-03-11T09:18:03.245Z,1002.81
2019-03-11T09:19:03.258Z,1002.86
2019-03-11T09:20:03.221Z,1002.85
2019-03-11T09:21:04.945Z,1002.90
2019-03-11T09:22:03.201Z,1002.82
2019-03-11T09:23:03.192Z,1002.85
2019-03-11T09:24:03.208Z,1002.95
2019-03-11T09:25:03.173Z,1002.84
2019-03-11T09:26:03.160Z,1002.81
2019-03-11T09:27:03.150Z,1002.85
2019-03-11T09:28:03.140Z,1002.91
2019-03-11T09:29:03.167Z,1002.83
2019-03-11T09:30:03.118Z,1002.90
2019-03-11T09:31:03.166Z,1002.90
2019-03-11T09:32:03.096Z,1002.92
2019-03-11T09:33:03.088Z,1002.80
2019-03-11T09:34:03.077Z,1002.82
2019-03-11T09:35:03.102Z,1002.91
2019-03-11T09:36:03.059Z,1002.93
2019-03-11T09:37:03.049Z,1002.79
2019-03-11T09:38:03.986Z,1002.90
2019-03-11T09:39:03.034Z,1002.86
2019-03-11T09:40:03.011Z,1002.89
2019-03-11T09:41:03.030Z,1002.79
2019-03-11T09:42:02.991Z,1002.81
2019-03-11T09:43:02.981Z,1002.85
2019-03-11T09:44:02.972Z,1002.86
2019-03-11T09:45:02.962Z,1002.85
2019-03-11T09:46:02.986Z,1002.90
2019-03-11T09:47:02.938Z,1002.87
2019-03-11T09:48:02.928Z,1002.93
2019-03-11T09:49:02.917Z,1002.89
2019-03-11T09:50:02.908Z,1002.86
2019-03-11T09:51:02.903Z,1002.86
2019-03-11T09:52:02.912Z,1002.87
2019-03-11T09:53:02.875Z,1002.82
2019-03-11T09:54:02.863Z,1002.83
2019-03-11T09:55:02.856Z,1002.86
2019-03-11T09:56:02.859Z,1002.87
2019-03-11T09:57:02.876Z,1002.86
2019-03-11T09:58:02.819Z,1002.83
2019-03-11T09:59:02.809Z,1002.85
2019-03-11T10:00:02.800Z,1002.88
2019-03-11T10:01:02.785Z,1002.88
2019-03-11T10:02:02.776Z,1002.83
2019-03-11T10:03:02.801Z,1002.87
2019-03-11T10:04:02.755Z,1002.84
2019-03-11T10:05:02.742Z,1002.80
2019-03-11T10:06:02.731Z,1002.93
2019-03-11T10:07:02.721Z,1002.92
2019-03-11T10:08:02.879Z,1002.88
2019-03-11T10:09:02.729Z,1002.93
2019-03-11T10:10:02.695Z,1002.90
2019-03-11T10:11:02.678Z,1002.89
2019-03-11T10:12:02.666Z,1002.95
2019-03-11T10:13:02.656Z,1002.90
2019-03-11T10:14:02.674Z,1002.93
2019-03-11T10:15:02.636Z,1003.02
2019-03-11T10:16:02.625Z,1002.89
2019-03-11T10:17:02.616Z,1002.94
2019-03-11T10:18:02.606Z,1002.96
2019-03-11T10:19:02.629Z,1002.91
2019-03-11T10:20:02.583Z,1002.85
2019-03-11T10:21:02.570Z,1002.94
2019-03-11T10:22:02.562Z,1003.03
2019-03-11T10:23:02.550Z,1002.95
2019-03-11T10:24:02.543Z,1003.02
2019-03-11T10:25:02.568Z,1002.97
2019-03-11T10:26:02.519Z,1002.92
2019-03-11T10:27:02.507Z,1003.01
2019-03-11T10:28:02.501Z,1003.02
2019-03-11T10:29:02.488Z,1002.92
2019-03-11T10:30:02.474Z,1003.01
2019-03-11T10:31:02.488Z,1002.99
2019-03-11T10:32:02.454Z,1002.98
2019-03-11T10:33:02.460Z,1002.93
2019-03-11T10:34:02.432Z,1002.88
2019-03-11T10:35:02.419Z,1002.98
2019-03-11T10:36:02.444Z,1003.06
2019-03-11T10:37:02.400Z,1002.91
2019-03-11T10:38:02.389Z,1003.02
2019-03-11T10:39:02.378Z,1002.92
2019-03-11T10:40:02.371Z,1002.98
2019-03-11T10:41:02.357Z,1002.93
2019-03-11T10:42:02.382Z,1002.96
2019-03-11T10:43:02.339Z,1002.94
2019-03-11T10:44:02.325Z,1003.03
2019-03-11T10:45:02.313Z,1003.04
2019-03-11T10:46:02.310Z,1003.03
2019-03-11T10:47:02.294Z,1003.00
2019-03-11T10:48:02.336Z,1003.00
2019-03-11T10:49:02.273Z,1003.00
2019-03-11T10:50:02.262Z,1003.00
2019-03-11T10:51:02.332Z,1002.94
2019-03-11T10:52:02.251Z,1002.85
2019-03-11T10:53:02.229Z,1002.98
2019-03-11T10:54:02.245Z,1002.91
2019-03-11T10:55:02.208Z,1002.87
2019-03-11T10:56:02.199Z,1002.85
2019-03-11T10:57:02.188Z,1002.90
2019-03-11T10:58:02.175Z,1002.90
2019-03-11T10:59:02.206Z,1002.80
2019-03-11T11:00:02.152Z,1002.79
2019-03-11T11:01:02.145Z,1002.88
2019-03-11T11:02:02.138Z,1002.88
2019-03-11T11:03:02.122Z,1002.91
2019-03-11T11:04:02.111Z,1002.82
2019-03-11T11:05:02.141Z,1002.88
2019-03-11T11:06:02.087Z,1002.88
2019-03-11T11:07:02.077Z,1002.82
2019-03-11T11:08:02.069Z,1002.86
2019-03-11T11:09:02.059Z,1002.86
2019-03-11T11:10:02.053Z,1002.83
2019-03-11T11:11:02.062Z,1002.90
2019-03-11T11:12:02.024Z,1002.93
2019-03-11T11:13:02.013Z,1002.92
2019-03-11T11:14:02.002Z,1002.91
2019-03-11T11:15:01.989Z,1002.82
2019-03-11T11:16:02.017Z,1002.93
2019-03-11T11:17:01.972Z,1003.08
2019-03-11T11:18:01.962Z,1002.98
2019-03-11T11:19:01.950Z,1003.04
2019-03-11T11:20:03.645Z,1003.10
2019-03-11T11:21:01.931Z,1003.01
2019-03-11T11:22:01.953Z,1003.02
2019-03-11T11:23:01.906Z,1003.03
2019-03-11T11:24:01.893Z,1003.05
2019-03-11T11:25:01.882Z,1003.06
2019-03-11T11:26:01.887Z,1003.03
2019-03-11T11:27:01.863Z,1003.03
2019-03-11T11:28:01.891Z,1003.05
2019-03-11T11:29:01.839Z,1003.10
2019-03-11T11:30:01.829Z,1003.15
2019-03-11T11:31:01.819Z,1003.11
2019-03-11T11:32:01.809Z,1003.18
2019-03-11T11:33:01.798Z,1003.09
2019-03-11T11:34:01.815Z,1003.13
2019-03-11T11:35:01.777Z,1003.10
2019-03-11T11:36:01.766Z,1003.07
2019-03-11T11:37:01.754Z,1003.17
2019-03-11T11:38:01.747Z,1003.21
2019-03-11T11:39:01.770Z,1003.19
2019-03-11T11:40:01.725Z,1003.20
2019-03-11T11:41:01.712Z,1003.32
2019-03-11T11:42:01.700Z,1003.32
2019-03-11T11:43:01.690Z,1003.28
2019-03-11T11:44:01.681Z,1003.38
2019-03-11T11:45:01.708Z,1003.34
2019-03-11T11:46:01.658Z,1003.35
2019-03-11T11:47:01.646Z,1003.38
2019-03-11T11:48:01.636Z,1003.36
2019-03-11T11:49:01.628Z,1003.28
2019-03-11T11:50:01.615Z,1003.30
2019-03-11T11:51:01.627Z,1003.34
2019-03-11T11:52:01.593Z,1003.37
2019-03-11T11:53:01.583Z,1003.36
2019-03-11T11:54:01.576Z,1003.30
2019-03-11T11:55:01.577Z,1003.28
2019-03-11T11:56:01.586Z,1003.32
2019-03-11T11:57:01.569Z,1003.36
2019-03-11T11:58:01.525Z,1003.32
2019-03-11T11:59:01.518Z,1003.32
2019-03-11T12:00:01.508Z,1003.42
2019-03-11T12:01:01.495Z,1003.33
2019-03-11T12:02:04.094Z,1003.34
2019-03-11T12:03:01.473Z,1003.35
2019-03-11T12:04:01.467Z,1003.36
2019-03-11T12:05:01.453Z,1003.33